createdAt,value
2019-03-17T00:00:58.187Z,3.21
2019-03-17T00:11:51.384Z,3.20
2019-03-17T00:22:49.272Z,3.20
2019-03-17T00:33:44.305Z,3.19
2019-03-17T00:44:43.220Z,3.19
2019-03-17T00:55:39.335Z,3.19
2019-03-17T01:06:38.406Z,3.19
2019-03-17T01:17:37.055Z,3.18
2019-03-17T01:28:32.798Z,3.18
2019-03-17T01:39:34.213Z,3.17
2019-03-17T01:50:28.694Z,3.17
2019-03-17T02:01:26.413Z,3.17
2019-03-17T02:12:20.616Z,3.17
2019-03-17T02:23:04.756Z,3.15
2019-03-17T02:33:41.464Z,3.15
2019-03-17T02:44:35.764Z,3.15
2019-03-17T02:55:28.122Z,3.15
2019-03-17T03:06:27.056Z,3.14
2019-03-17T03:17:20.363Z,3.14
2019-03-17T03:28:19.317Z,3.14
2019-03-17T03:39:22.489Z,3.14
2019-03-17T03:50:17.906Z,3.13
2019-03-17T04:01:15.019Z,3.13
2019-03-17T04:12:14.174Z,3.13
2019-03-17T04:23:10.415Z,3.12
2019-03-17T04:34:10.044Z,3.12
2019-03-17T04:45:07.364Z,3.12
2019-03-17T04:56:09.886Z,3.12
2019-03-17T05:07:13.198Z,3.11
2019-03-17T05:18:13.853Z,3.11
2019-03-17T05:29:18.577Z,3.12
2019-03-17T05:40:18.144Z,3.13
2019-03-17T05:51:18.229Z,3.13
2019-03-17T06:02:23.154Z,3.14
2019-03-17T06:13:21.469Z,3.15
2019-03-17T06:24:24.153Z,3.17
2019-03-17T06:35:24.107Z,3.18
2019-03-17T06:46:22.760Z,3.18
2019-03-17T06:57:26.514Z,3.19
2019-03-17T07:08:27.240Z,3.22
2019-03-17T07:19:23.368Z,3.26
2019-03-17T07:30:28.666Z,3.29
2019-03-17T07:41:34.275Z,3.30
2019-03-17T07:52:31.434Z,3.32
2019-03-17T08:03:34.864Z,3.34
2019-03-17T08:14:26.031Z,3.33
2019-03-17T08:25:23.109Z,3.33
2019-03-17T08:36:25.847Z,3.34
2019-03-17T08:47:24.091Z,3.34
2019-03-17T08:58:22.803Z,3.35
2019-03-17T09:09:28.228Z,3.36
2019-03-17T09:20:30.873Z,3.37
2019-03-17T09:31:35.088Z,3.38
2019-03-17T09:42:34.229Z,3.39
2019-03-17T09:53:34.029Z,3.39
2019-03-17T10:04:39.426Z,3.40
2019-03-17T10:15:41.841Z,3.40
2019-03-17T10:26:45.182Z,3.41
2019-03-17T10:37:45.269Z,3.42
2019-03-17T10:48:49.330Z,3.43
2019-03-17T10:59:53.045Z,3.43
2019-03-17T11:10:58.107Z,3.39
2019-03-17T11:21:56.396Z,3.39
2019-03-17T11:32:58.947Z,3.39
2019-03-17T11:44:01.678Z,3.39
2019-03-17T11:55:02.054Z,3.39
2019-03-17T12:06:02.290Z,3.39
2019-03-17T12:17:00.542Z,3.38
2019-03-17T12:28:00.674Z,3.39
2019-03-17T12:39:04.279Z,3.39
2019-03-17T12:50:06.535Z,3.39
2019-03-17T13:01:07.214Z,3.40
2019-03-17T13:12:06.272Z,3.39
2019-03-17T13:23:09.759Z,3.39
2019-03-17T13:33:42.437Z,3.39
2019-03-17T13:44:29.691Z,3.38
2019-03-17T13:55:31.637Z,3.38
2019-03-17T14:06:34.001Z,3.38
2019-03-17T14:17:34.083Z,3.40
2019-03-17T14:28:29.725Z,3.39
2019-03-17T14:39:29.989Z,3.39
2019-03-17T14:50:29.092Z,3.38
2019-03-17T15:01:25.819Z,3.37
2019-03-17T15:12:25.874Z,3.40
2019-03-17T15:23:21.898Z,3.39
2019-03-17T15:34:26.001Z,3.39
2019-03-17T15:45:20.292Z,3.39
2019-03-17T15:56:21.517Z,3.39
2019-03-17T16:07:25.312Z,3.38
2019-03-17T16:18:23.018Z,3.39
2019-03-17T16:29:27.363Z,3.38
2019-03-17T16:40:23.876Z,3.39
2019-03-17T16:51:23.107Z,3.39
2019-03-17T17:02:20.370Z,3.38
2019-03-17T17:13:17.121Z,3.37
2019-03-17T17:24:13.384Z,3.36
2019-03-17T17:35:16.443Z,3.36
2019-03-17T17:46:14.504Z,3.36
2019-03-17T17:57:12.032Z,3.35
2019-03-17T18:08:15.677Z,3.34
2019-03-17T18:19:12.778Z,3.34
2019-03-17T18:30:13.174Z,3.34
2019-03-17T18:41:17.087Z,3.34
2019-03-17T18:52:17.089Z,3.34
2019-03-17T19:03:19.106Z,3.33
2019-03-17T19:14:16.364Z,3.33
2019-03-17T19:25:17.783Z,3.33
2019-03-17T19:36:17.180Z,3.33
2019-03-17T19:47:17.937Z,3.33
2019-03-17T19:58:22.241Z,3.32
2019-03-17T20:09:18.260Z,3.32
2019-03-17T20:20:15.506Z,3.31
2019-03-17T20:31:17.228Z,3.31
2019-03-17T20:42:14.413Z,3.30
2019-03-17T20:53:10.882Z,3.30
2019-03-17T21:04:10.369Z,3.29
2019-03-17T21:15:06.696Z,3.29
2019-03-17T21:26:03.746Z,3.28
2019-03-17T21:37:01.966Z,3.28
2019-03-17T21:47:56.485Z,3.28
2019-03-17T21:59:00.349Z,3.28
2019-03-17T22:10:00.384Z,3.27
2019-03-17T22:21:02.691Z,3.27
2019-03-17T22:32:03.313Z,3.27
2019-03-17T22:43:05.491Z,3.26
2019-03-17T22:54:01.755Z,3.26
2019-03-17T23:05:01.364Z,3.26
2019-03-17T23:16:03.004Z,3.26
2019-03-17T23:27:02.383Z,3.26
2019-03-17T23:38:00.208Z,3.26
2019-03-17T23:49:02.156Z,3.25
